Time;durP1;ratioP1;P1;durP2;ratioP2;P2;SDS_P1;SDS_P2;PMS_P1;PMS_P2;Temp;Humidity;BMP_temperature;BMP_pressure;BME280_temperature;BME280_humidity;BME280_pressure;Samples;Min_cycle;Max_cycle;Signal;HPM_P1;HPM_P2
2023/08/05 00:00:35;;;;;;;6.78;1.90;;;;;;;14.73;100.00;100833.47;5039466;28;20060;-69
2023/08/05 00:03:02;;;;;;;5.60;1.90;;;;;;;14.66;100.00;100832.09;5050119;28;20051;-69
2023/08/05 00:05:30;;;;;;;5.70;1.90;;;;;;;14.64;100.00;100831.31;5033255;28;20053;-69
2023/08/05 00:07:57;;;;;;;8.00;2.25;;;;;;;14.54;100.00;100823.03;5011788;28;20087;-69
2023/08/05 00:10:25;;;;;;;6.65;1.70;;;;;;;14.69;100.00;100824.88;5012192;28;20107;-68
2023/08/05 00:12:53;;;;;;;4.90;1.60;;;;;;;14.65;100.00;100820.69;5027512;28;20049;-68
2023/08/05 00:15:20;;;;;;;6.22;1.70;;;;;;;14.67;100.00;100816.19;5041243;28;20166;-68
2023/08/05 00:17:47;;;;;;;5.25;1.75;;;;;;;14.66;100.00;100817.16;5050025;28;20053;-68
2023/08/05 00:20:14;;;;;;;7.72;2.13;;;;;;;14.71;100.00;100811.59;5032901;28;20138;-67
2023/08/05 00:22:41;;;;;;;5.88;1.60;;;;;;;14.71;100.00;100814.25;5013663;28;20538;-68
2023/08/05 00:25:08;;;;;;;5.13;1.55;;;;;;;14.59;100.00;100813.13;5032521;28;20049;-67
2023/08/05 00:27:35;;;;;;;7.50;1.63;;;;;;;14.47;100.00;100806.69;5036084;28;20136;-67
2023/08/05 00:30:01;;;;;;;6.22;1.75;;;;;;;14.60;100.00;100806.91;5038197;28;20060;-68
2023/08/05 00:32:29;;;;;;;7.70;2.00;;;;;;;14.54;100.00;100805.44;5037393;28;20056;-67
2023/08/05 00:34:56;;;;;;;6.95;1.85;;;;;;;14.45;100.00;100800.66;5018823;28;20509;-67
2023/08/05 00:37:23;;;;;;;8.35;1.90;;;;;;;14.51;100.00;100802.94;5038149;28;20111;-68
2023/08/05 00:39:50;;;;;;;5.88;1.90;;;;;;;14.54;100.00;100783.50;5049323;28;20542;-68
2023/08/05 00:42:19;;;;;;;5.82;1.95;;;;;;;14.77;100.00;100792.84;5030197;28;20159;-67
2023/08/05 00:44:45;;;;;;;6.28;1.95;;;;;;;14.99;100.00;100795.16;5044719;28;20051;-68
2023/08/05 00:47:15;;;;;;;8.32;1.95;;;;;;;14.97;100.00;100792.59;5027928;28;20144;-67
2023/08/05 00:49:42;;;;;;;9.27;2.20;;;;;;;14.86;100.00;100787.06;5031810;28;20049;-67
2023/08/05 00:52:09;;;;;;;4.70;1.73;;;;;;;14.85;100.00;100788.00;5034357;28;20053;-68
2023/08/05 00:54:36;;;;;;;7.93;2.30;;;;;;;14.78;100.00;100782.22;5028282;28;20052;-68
2023/08/05 00:57:03;;;;;;;6.82;1.75;;;;;;;14.81;100.00;100786.47;5028456;28;20059;-68
2023/08/05 00:59:30;;;;;;;4.53;1.50;;;;;;;14.74;100.00;100779.81;5029121;28;20049;-68
2023/08/05 01:01:56;;;;;;;9.07;2.13;;;;;;;14.63;100.00;100774.28;5017372;28;20065;-69
2023/08/05 01:04:23;;;;;;;6.38;1.80;;;;;;;14.59;100.00;100761.28;5032542;28;20140;-67
2023/08/05 01:06:52;;;;;;;6.93;1.98;;;;;;;14.81;100.00;100776.75;5008746;28;20058;-68
2023/08/05 01:09:19;;;;;;;5.28;1.70;;;;;;;14.79;100.00;100781.28;5018984;28;20060;-67
2023/08/05 01:11:46;;;;;;;5.30;1.70;;;;;;;14.68;100.00;100770.47;5026082;28;20409;-68
2023/08/05 01:14:13;;;;;;;7.05;1.95;;;;;;;14.78;100.00;100768.16;5048867;28;20037;-68
2023/08/05 01:16:40;;;;;;;6.15;1.95;;;;;;;14.90;100.00;100780.69;5035077;28;20519;-68
2023/08/05 01:19:13;;;;;;;5.53;1.80;;;;;;;14.66;100.00;100782.00;5029300;28;20053;-67
2023/08/05 01:21:59;;;;;;;5.80;1.77;;;;;;;14.54;100.00;100776.44;5010488;28;20065;-67
2023/08/05 01:24:32;;;;;;;6.95;2.22;;;;;;;14.59;100.00;100777.09;5016240;28;20045;-67
2023/08/05 01:26:59;;;;;;;7.07;1.67;;;;;;;14.41;100.00;100759.59;5028699;28;20479;-67
2023/08/05 01:29:26;;;;;;;7.20;1.92;;;;;;;14.54;100.00;100770.34;5021548;28;20048;-68
2023/08/05 01:31:54;;;;;;;7.63;1.98;;;;;;;14.58;100.00;100764.84;5024642;28;20068;-67
2023/08/05 01:34:21;;;;;;;6.03;1.85;;;;;;;14.49;100.00;100765.31;5032077;28;20041;-68
2023/08/05 01:36:47;;;;;;;7.13;1.88;;;;;;;14.51;100.00;100759.97;5048108;28;20045;-67
2023/08/05 01:39:15;;;;;;;11.48;2.15;;;;;;;14.46;100.00;100751.44;5031388;28;20056;-68
2023/08/05 01:41:41;;;;;;;7.55;2.20;;;;;;;14.51;100.00;100757.31;5027022;28;20434;-67
2023/08/05 01:44:08;;;;;;;8.05;1.90;;;;;;;14.41;100.00;100759.59;5043703;28;20044;-66
2023/08/05 01:46:35;;;;;;;6.53;1.80;;;;;;;14.39;100.00;100745.66;5041662;28;20049;-68
2023/08/05 01:49:01;;;;;;;9.32;1.92;;;;;;;14.46;100.00;100757.56;5023617;28;20182;-68
2023/08/05 01:51:28;;;;;;;7.95;1.75;;;;;;;14.65;100.00;100738.16;5019021;28;20154;-68
2023/08/05 01:53:55;;;;;;;4.88;1.55;;;;;;;14.77;100.00;100748.88;5028859;28;20059;-68
2023/08/05 01:56:21;;;;;;;5.32;1.67;;;;;;;14.64;100.00;100747.00;5040017;28;20060;-68
2023/08/05 01:58:48;;;;;;;5.82;1.80;;;;;;;14.57;100.00;100752.56;5039026;28;20049;-68
2023/08/05 02:01:14;;;;;;;5.38;1.60;;;;;;;14.84;100.00;100752.03;5029935;28;20407;-68
2023/08/05 02:03:41;;;;;;;5.50;1.90;;;;;;;14.61;100.00;100746.22;5039223;28;20152;-68
2023/08/05 02:06:08;;;;;;;6.90;1.85;;;;;;;14.51;100.00;100747.63;5035788;28;20080;-68
2023/08/05 02:08:35;;;;;;;7.55;1.80;;;;;;;14.83;100.00;100744.22;5042840;28;20056;-68
2023/08/05 02:11:03;;;;;;;6.13;1.73;;;;;;;14.66;100.00;100743.34;5034109;28;20049;-68
2023/08/05 02:13:30;;;;;;;8.65;1.95;;;;;;;14.60;100.00;100741.03;5043083;28;20049;-68
2023/08/05 02:15:56;;;;;;;4.95;1.73;;;;;;;14.61;100.00;100735.69;5028883;28;20054;-68
2023/08/05 02:18:23;;;;;;;4.88;1.70;;;;;;;14.62;100.00;100736.53;5031073;28;20052;-68
2023/08/05 02:20:50;;;;;;;6.38;1.85;;;;;;;14.57;100.00;100726.22;5029157;28;20068;-67
2023/08/05 02:23:16;;;;;;;6.43;1.60;;;;;;;14.47;100.00;100716.28;5010717;28;20077;-67
2023/08/05 02:25:43;;;;;;;7.35;1.77;;;;;;;14.73;100.00;100714.84;5032118;28;20064;-68
2023/08/05 02:28:11;;;;;;;7.38;1.90;;;;;;;14.82;100.00;100717.00;5013945;28;20056;-68
2023/08/05 02:30:37;;;;;;;8.43;2.03;;;;;;;14.72;100.00;100707.91;5012209;28;20483;-68
2023/08/05 02:33:04;;;;;;;6.93;2.15;;;;;;;14.72;100.00;100707.91;5012526;28;20057;-68
2023/08/05 02:35:31;;;;;;;7.72;1.83;;;;;;;14.75;100.00;100702.44;5027501;28;20383;-68
2023/08/05 02:37:57;;;;;;;6.05;1.95;;;;;;;14.56;100.00;100695.53;5032881;28;20446;-68
2023/08/05 02:40:24;;;;;;;6.93;1.88;;;;;;;14.54;100.00;100692.13;5032931;28;20056;-68
2023/08/05 02:42:51;;;;;;;6.43;1.40;;;;;;;14.60;100.00;100685.72;5030060;28;20068;-68
2023/08/05 02:45:18;;;;;;;5.13;1.52;;;;;;;14.78;100.00;100689.09;5031220;28;20037;-68
2023/08/05 02:47:45;;;;;;;9.88;1.98;;;;;;;14.86;100.00;100688.69;5017118;28;20057;-68
2023/08/05 02:50:12;;;;;;;6.90;1.60;;;;;;;14.80;100.00;100688.09;5032883;28;20045;-68
2023/08/05 02:52:38;;;;;;;6.45;2.00;;;;;;;14.88;100.00;100674.47;5028067;28;20057;-68
2023/08/05 02:55:05;;;;;;;5.70;1.70;;;;;;;14.88;100.00;100677.13;5019982;28;20049;-68
2023/08/05 02:57:32;;;;;;;8.27;2.10;;;;;;;14.90;100.00;100684.94;5031737;28;20060;-68
2023/08/05 02:59:59;;;;;;;6.07;1.75;;;;;;;14.91;100.00;100674.31;5012216;28;20389;-68
2023/08/05 03:02:26;;;;;;;5.88;1.60;;;;;;;14.90;100.00;100672.59;5024097;28;20091;-68
2023/08/05 03:04:53;;;;;;;5.18;1.70;;;;;;;14.90;100.00;100666.47;5031136;28;20046;-69
2023/08/05 03:07:19;;;;;;;8.43;2.00;;;;;;;14.80;100.00;100668.78;5031847;28;20049;-68
2023/08/05 03:09:47;;;;;;;6.88;1.98;;;;;;;14.96;100.00;100666.13;5014507;28;20522;-69
2023/08/05 03:12:14;;;;;;;4.75;1.45;;;;;;;14.83;100.00;100663.34;5016937;28;20058;-68
2023/08/05 03:14:40;;;;;;;5.93;1.63;;;;;;;14.76;100.00;100657.56;5012785;28;20042;-68
2023/08/05 03:17:07;;;;;;;5.78;1.55;;;;;;;14.81;100.00;100652.88;5031977;28;20404;-69
2023/08/05 03:19:33;;;;;;;4.60;1.38;;;;;;;14.90;100.00;100654.16;5035092;28;20183;-68
2023/08/05 03:22:01;;;;;;;5.20;1.52;;;;;;;14.96;100.00;100651.19;5042628;28;20136;-69
2023/08/05 03:24:28;;;;;;;4.80;1.38;;;;;;;14.94;100.00;100646.91;5030168;28;20067;-68
2023/08/05 03:26:55;;;;;;;5.70;1.58;;;;;;;14.94;100.00;100653.06;5039927;28;20049;-68
2023/08/05 03:29:22;;;;;;;4.80;1.33;;;;;;;14.97;100.00;100650.22;5033747;28;20049;-68
2023/08/05 03:31:48;;;;;;;8.18;1.90;;;;;;;14.92;100.00;100654.06;5038213;28;20058;-68
2023/08/05 03:34:16;;;;;;;5.22;1.80;;;;;;;14.92;100.00;100657.53;5039948;28;20414;-68
2023/08/05 03:36:43;;;;;;;6.93;2.38;;;;;;;14.95;100.00;100654.72;5043175;28;20427;-68
2023/08/05 03:39:10;;;;;;;7.88;2.03;;;;;;;14.91;100.00;100645.31;5051080;28;20087;-68
2023/08/05 03:41:36;;;;;;;5.93;1.90;;;;;;;14.83;100.00;100636.97;5012686;28;20049;-68
2023/08/05 03:44:03;;;;;;;8.20;1.98;;;;;;;14.92;100.00;100639.09;5042323;28;20127;-68
2023/08/05 03:46:30;;;;;;;9.05;2.15;;;;;;;14.90;100.00;100642.75;5040213;28;20119;-69
2023/08/05 03:49:00;;;;;;;7.63;2.33;;;;;;;14.90;100.00;100642.75;5033491;28;20553;-68
2023/08/05 03:51:28;;;;;;;7.82;2.20;;;;;;;14.88;100.00;100642.84;5036103;28;20058;-69
2023/08/05 03:53:56;;;;;;;7.38;2.00;;;;;;;14.87;100.00;100633.22;5038685;28;20049;-69
2023/08/05 03:56:26;;;;;;;5.93;1.65;;;;;;;14.91;100.00;100645.31;5022886;28;20156;-68
2023/08/05 03:58:57;;;;;;;11.93;2.33;;;;;;;14.84;100.00;100640.47;5031398;28;20136;-68
2023/08/05 04:01:23;;;;;;;7.75;2.00;;;;;;;14.79;100.00;100646.00;5029109;28;20049;-68
2023/08/05 04:03:50;;;;;;;5.60;1.80;;;;;;;14.80;100.00;100645.94;5044945;28;20075;-69
2023/08/05 04:06:20;;;;;;;8.10;2.40;;;;;;;14.75;100.00;100637.44;5042316;28;20137;-68
2023/08/05 04:08:54;;;;;;;6.82;1.80;;;;;;;14.54;100.00;100613.09;5045762;28;20053;-68
2023/08/05 04:11:21;;;;;;;5.78;1.70;;;;;;;14.42;100.00;100642.75;5032681;28;20095;-69
2023/08/05 04:13:50;;;;;;;5.50;1.77;;;;;;;14.48;100.00;100631.88;5048224;28;20475;-68
2023/08/05 04:16:16;;;;;;;4.40;1.40;;;;;;;14.48;100.00;100631.88;5049509;28;20048;-68
2023/08/05 04:18:48;;;;;;;6.28;1.75;;;;;;;14.42;100.00;100633.06;5035274;28;20084;-67
2023/08/05 04:21:16;;;;;;;6.85;1.70;;;;;;;14.31;100.00;100627.56;5033804;28;20054;-68
2023/08/05 04:23:46;;;;;;;8.38;2.25;;;;;;;14.30;100.00;100635.53;5030155;28;20085;-68
2023/08/05 04:26:13;;;;;;;6.80;1.70;;;;;;;14.31;100.00;100624.91;5038217;28;20056;-68
2023/08/05 04:28:40;;;;;;;6.60;1.70;;;;;;;14.27;100.00;100630.44;5046608;28;20041;-68
2023/08/05 04:31:06;;;;;;;4.93;1.60;;;;;;;14.34;100.00;100626.50;5022392;28;20102;-68
2023/08/05 04:33:33;;;;;;;3.33;1.30;;;;;;;14.09;100.00;100605.94;5046225;28;20126;-68
2023/08/05 04:36:01;;;;;;;5.43;1.50;;;;;;;14.20;100.00;100625.50;5046013;28;20045;-68
2023/08/05 04:38:29;;;;;;;4.13;1.52;;;;;;;14.11;100.00;100623.38;5023139;28;20060;-68
2023/08/05 04:40:57;;;;;;;7.28;1.65;;;;;;;14.07;100.00;100606.03;5030287;28;20057;-68
2023/08/05 04:43:24;;;;;;;5.10;1.40;;;;;;;14.03;100.00;100615.03;5038736;28;20075;-68
2023/08/05 04:45:51;;;;;;;5.80;1.60;;;;;;;14.26;100.00;100610.31;5034843;28;20115;-68
2023/08/05 04:48:17;;;;;;;5.78;1.60;;;;;;;14.44;100.00;100611.91;5035737;28;20053;-68
2023/08/05 04:50:44;;;;;;;5.45;1.30;;;;;;;14.48;100.00;100604.69;5036972;28;20057;-68
2023/08/05 04:53:13;;;;;;;8.68;1.98;;;;;;;14.37;100.00;100605.28;5031276;28;20258;-68
2023/08/05 04:55:40;;;;;;;6.13;1.55;;;;;;;14.41;100.00;100602.41;5036759;28;20046;-68
2023/08/05 04:58:08;;;;;;;8.00;1.70;;;;;;;14.24;100.00;100587.53;5029504;28;20045;-68
2023/08/05 05:00:35;;;;;;;6.95;1.75;;;;;;;14.36;100.00;100593.03;5036941;28;20048;-68
2023/08/05 05:03:02;;;;;;;6.20;2.10;;;;;;;14.38;100.00;100585.94;5025359;28;20053;-68
2023/08/05 05:05:28;;;;;;;6.28;1.98;;;;;;;14.23;100.00;100583.19;5029275;28;20080;-68
2023/08/05 05:07:55;;;;;;;6.55;1.95;;;;;;;14.23;100.00;100585.81;5030172;28;20057;-68
2023/08/05 05:10:21;;;;;;;7.85;2.20;;;;;;;14.15;100.00;100580.16;5049850;28;20051;-68
2023/08/05 05:12:49;;;;;;;6.75;2.13;;;;;;;14.21;100.00;100587.69;5010247;28;20057;-68
2023/08/05 05:15:16;;;;;;;8.43;1.98;;;;;;;14.20;100.00;100574.59;5040261;28;20053;-68
2023/08/05 05:17:46;;;;;;;5.82;1.73;;;;;;;13.99;100.00;100587.19;5032417;28;20506;-68
2023/08/05 05:20:13;;;;;;;5.40;1.73;;;;;;;13.82;100.00;100583.66;5035776;28;20049;-68
2023/08/05 05:22:40;;;;;;;5.82;1.60;;;;;;;13.89;100.00;100592.09;5032010;28;20044;-68
2023/08/05 05:25:07;;;;;;;6.78;1.90;;;;;;;13.92;100.00;100586.66;5049261;28;20063;-68
2023/08/05 05:27:37;;;;;;;7.78;1.80;;;;;;;13.96;100.00;100582.09;5037083;28;20502;-68
2023/08/05 05:30:04;;;;;;;7.50;2.08;;;;;;;13.92;100.00;100570.88;5025612;28;20132;-68
2023/08/05 05:32:30;;;;;;;6.28;2.13;;;;;;;13.93;100.00;100580.44;5044157;28;20052;-68
2023/08/05 05:34:57;;;;;;;6.25;1.73;;;;;;;13.93;100.00;100574.34;5035816;28;20847;-68
2023/08/05 05:37:24;;;;;;;7.20;2.05;;;;;;;14.02;100.00;100573.84;5028191;28;20060;-68
2023/08/05 05:39:51;;;;;;;5.97;1.80;;;;;;;14.16;100.00;100586.25;5029107;28;20053;-68
2023/08/05 05:42:17;;;;;;;6.20;1.58;;;;;;;14.05;100.00;100584.22;5027464;28;20049;-68
2023/08/05 05:44:50;;;;;;;6.97;2.03;;;;;;;14.03;100.00;100584.28;5029435;28;20041;-69
2023/08/05 05:47:17;;;;;;;10.40;2.25;;;;;;;14.15;100.00;100574.03;5018881;28;20472;-69
2023/08/05 05:49:43;;;;;;;5.03;1.83;;;;;;;14.31;100.00;100576.66;5026120;28;20192;-68
2023/08/05 05:52:13;;;;;;;7.35;1.98;;;;;;;14.39;100.00;100577.06;5023649;28;20060;-69
2023/08/05 05:54:39;;;;;;;6.55;1.83;;;;;;;14.44;100.00;100580.31;5028141;28;20136;-69
2023/08/05 05:57:06;;;;;;;8.32;2.10;;;;;;;14.36;100.00;100586.00;5028274;28;20479;-68
2023/08/05 05:59:33;;;;;;;5.65;1.55;;;;;;;14.47;100.00;100581.94;5017392;28;20056;-68
2023/08/05 06:02:00;;;;;;;6.40;1.75;;;;;;;14.41;100.00;100583.97;5032023;28;20049;-68
2023/08/05 06:04:28;;;;;;;7.78;2.22;;;;;;;14.45;100.00;100579.38;5033254;28;20487;-69
2023/08/05 06:06:55;;;;;;;8.57;2.20;;;;;;;14.62;100.00;100583.72;5014697;28;20547;-68
2023/08/05 06:09:23;;;;;;;10.00;2.00;;;;;;;14.56;100.00;100576.97;5015078;28;20049;-68
2023/08/05 06:11:51;;;;;;;8.50;2.40;;;;;;;14.55;100.00;100570.00;5013076;28;20045;-68
2023/08/05 06:14:18;;;;;;;10.43;2.15;;;;;;;14.63;100.00;100581.94;5033383;28;20056;-68
2023/08/05 06:16:45;;;;;;;6.50;1.98;;;;;;;14.62;100.00;100583.72;5031339;28;20483;-68
2023/08/05 06:19:12;;;;;;;4.70;1.70;;;;;;;14.72;100.00;100589.31;5031335;28;20144;-68
2023/08/05 06:21:40;;;;;;;7.40;2.17;;;;;;;14.77;100.00;100584.63;5023618;28;20058;-68
2023/08/05 06:24:06;;;;;;;7.65;2.40;;;;;;;14.73;100.00;100583.97;5032729;28;20543;-68
2023/08/05 06:26:33;;;;;;;6.82;2.17;;;;;;;14.70;100.00;100583.28;5032996;28;20453;-68
2023/08/05 06:29:00;;;;;;;7.03;2.30;;;;;;;14.54;100.00;100551.66;5032169;28;20053;-68
2023/08/05 06:31:27;;;;;;;7.25;2.08;;;;;;;14.59;100.00;100576.84;5024454;28;20056;-68
2023/08/05 06:33:53;;;;;;;4.68;1.60;;;;;;;14.74;100.00;100574.25;5031228;28;20053;-68
2023/08/05 06:36:20;;;;;;;7.55;2.38;;;;;;;14.60;100.00;100565.34;5024290;28;20052;-69
2023/08/05 06:38:46;;;;;;;6.97;1.80;;;;;;;14.65;100.00;100578.28;4995533;28;20053;-68
2023/08/05 06:41:13;;;;;;;6.88;2.03;;;;;;;14.60;100.00;100565.34;5013126;28;20054;-68
2023/08/05 06:43:40;;;;;;;6.13;1.85;;;;;;;14.71;100.00;100571.78;5024615;28;20049;-68
2023/08/05 06:46:06;;;;;;;10.18;2.58;;;;;;;14.71;100.00;100566.53;5013164;28;20056;-68
2023/08/05 06:48:33;;;;;;;5.32;1.88;;;;;;;14.85;100.00;100565.72;5032453;28;20135;-68
2023/08/05 06:51:00;;;;;;;7.57;2.40;;;;;;;14.69;100.00;100571.88;5028080;28;20084;-68
2023/08/05 06:53:27;;;;;;;5.35;1.77;;;;;;;14.80;100.00;100577.41;5013399;28;20045;-68
2023/08/05 06:56:03;;;;;;;8.82;1.90;;;;;;;14.83;100.00;100572.88;5032279;28;20049;-69
2023/08/05 06:58:30;;;;;;;6.53;1.92;;;;;;;14.93;100.00;100571.41;5018956;28;20050;-68
2023/08/05 07:00:56;;;;;;;7.22;1.90;;;;;;;14.96;100.00;100572.09;5027251;28;20057;-68
2023/08/05 07:03:24;;;;;;;8.52;2.05;;;;;;;14.97;100.00;100591.38;5031108;28;20051;-68
2023/08/05 07:05:56;;;;;;;7.10;2.03;;;;;;;14.78;100.00;100587.19;5031676;28;20369;-68
2023/08/05 07:08:24;;;;;;;7.53;2.10;;;;;;;14.56;100.00;100574.34;5028361;28;20045;-68
2023/08/05 07:10:57;;;;;;;6.78;2.08;;;;;;;14.35;100.00;100571.13;5028151;28;20547;-69
2023/08/05 07:13:25;;;;;;;8.95;2.25;;;;;;;14.43;100.00;100563.66;5015168;28;20056;-68
2023/08/05 07:16:02;;;;;;;4.55;1.50;;;;;;;14.38;100.00;100573.59;5032036;28;20448;-68
2023/08/05 07:18:30;;;;;;;6.55;1.90;;;;;;;14.47;100.00;100574.03;5031854;28;20112;-68
2023/08/05 07:20:57;;;;;;;7.50;2.13;;;;;;;14.53;100.00;100576.31;5029965;28;20056;-68
2023/08/05 07:23:25;;;;;;;7.18;1.98;;;;;;;14.52;100.00;100579.84;5031834;28;20046;-68
2023/08/05 07:25:51;;;;;;;8.60;2.95;;;;;;;14.59;100.00;100582.09;5031093;28;20045;-68
2023/08/05 07:28:18;;;;;;;6.32;2.10;;;;;;;14.29;100.00;100553.06;5031015;28;20058;-68
2023/08/05 07:30:44;;;;;;;8.10;2.22;;;;;;;14.83;100.00;100580.78;4999786;28;20059;-68
2023/08/05 07:33:12;;;;;;;8.90;2.15;;;;;;;14.80;100.00;100574.75;5030838;28;20055;-68
2023/08/05 07:35:39;;;;;;;5.78;2.00;;;;;;;14.91;100.00;100578.53;5030719;28;20053;-68
2023/08/05 07:38:10;;;;;;;4.70;1.73;;;;;;;14.92;100.00;100586.38;5013730;28;20053;-68
2023/08/05 07:40:40;;;;;;;8.52;2.60;;;;;;;14.75;100.00;100590.00;5012442;28;20434;-69
2023/08/05 07:43:09;;;;;;;6.32;1.70;;;;;;;14.66;100.00;100571.19;5009478;28;20061;-69
2023/08/05 07:45:35;;;;;;;8.00;2.35;;;;;;;14.52;100.00;100580.72;5027077;28;20307;-68
2023/08/05 07:48:08;;;;;;;7.13;2.00;;;;;;;14.59;100.00;100587.38;5029663;28;20091;-68
2023/08/05 07:50:35;;;;;;;6.53;1.95;;;;;;;14.40;100.00;100579.63;5021004;28;20123;-69
2023/08/05 07:53:03;;;;;;;6.20;2.00;;;;;;;14.35;100.00;100583.47;5031034;28;20399;-68
2023/08/05 07:55:33;;;;;;;6.68;1.80;;;;;;;14.43;100.00;100586.53;5028969;28;20539;-68
2023/08/05 07:58:02;;;;;;;8.05;2.17;;;;;;;14.53;100.00;100581.56;5032315;28;20056;-68
2023/08/05 08:00:29;;;;;;;6.63;1.90;;;;;;;14.72;100.00;100576.97;5048929;28;20048;-69
2023/08/05 08:02:56;;;;;;;7.82;2.15;;;;;;;14.60;100.00;100591.69;5037153;28;20049;-68
2023/08/05 08:05:23;;;;;;;8.27;2.72;;;;;;;14.52;100.00;100570.19;5030727;28;20042;-68
2023/08/05 08:07:50;;;;;;;6.95;2.28;;;;;;;14.39;100.00;100574.44;5033759;28;20061;-68
2023/08/05 08:10:17;;;;;;;9.65;2.00;;;;;;;14.50;100.00;100581.72;5030421;28;20064;-69
2023/08/05 08:12:46;;;;;;;8.30;2.10;;;;;;;14.51;100.00;100592.19;5011566;28;20143;-68
2023/08/05 08:15:13;;;;;;;8.02;2.00;;;;;;;14.53;100.00;100585.03;5030304;28;20046;-68
2023/08/05 08:17:39;;;;;;;5.28;2.10;;;;;;;14.72;100.00;100587.53;5030829;28;20057;-68
2023/08/05 08:20:09;;;;;;;5.10;1.70;;;;;;;14.70;100.00;100589.41;5030388;28;20053;-68
2023/08/05 08:22:36;;;;;;;15.25;3.35;;;;;;;14.76;100.00;100588.19;5008786;28;20136;-69
2023/08/05 08:25:03;;;;;;;7.55;2.53;;;;;;;14.84;100.00;100595.66;5028673;28;20049;-68
2023/08/05 08:27:30;;;;;;;9.05;2.22;;;;;;;14.83;100.00;100579.00;5015554;28;20475;-68
2023/08/05 08:29:57;;;;;;;6.43;1.98;;;;;;;14.90;100.00;100593.50;5029030;28;20045;-68
2023/08/05 08:32:24;;;;;;;5.25;1.77;;;;;;;14.64;100.00;100589.72;5029921;28;20061;-68
2023/08/05 08:34:50;;;;;;;6.03;1.88;;;;;;;14.58;100.00;100588.31;5029216;28;20450;-69
2023/08/05 08:37:17;;;;;;;6.47;2.13;;;;;;;14.52;100.00;100593.91;5028473;28;20067;-69
2023/08/05 08:39:44;;;;;;;9.10;2.75;;;;;;;14.43;100.00;100591.78;5029279;28;20053;-69
2023/08/05 08:42:11;;;;;;;9.23;2.75;;;;;;;14.47;100.00;100590.66;5027428;28;20061;-68
2023/08/05 08:44:40;;;;;;;7.72;2.15;;;;;;;14.51;100.00;100588.72;5030092;28;20055;-69
2023/08/05 08:47:07;;;;;;;6.60;1.73;;;;;;;14.46;100.00;100588.97;5030107;28;20421;-69
2023/08/05 08:49:35;;;;;;;7.43;1.98;;;;;;;14.48;100.00;100595.00;5029774;28;20057;-69
2023/08/05 08:52:03;;;;;;;8.85;2.45;;;;;;;14.84;100.00;100598.28;5029546;28;20539;-69
2023/08/05 08:54:31;;;;;;;8.68;2.50;;;;;;;14.80;100.00;100587.06;5029564;28;20684;-66
2023/08/05 08:56:57;;;;;;;8.10;2.22;;;;;;;14.86;100.00;100592.00;5022305;28;20263;-67
2023/08/05 08:59:24;;;;;;;8.50;2.92;;;;;;;15.03;100.00;100595.44;5006419;28;20041;-67
2023/08/05 09:01:52;;;;;;;6.97;1.95;;;;;;;14.99;100.00;100592.97;5002650;28;20132;-69
2023/08/05 09:04:25;;;;;;;6.93;2.20;;;;;;;14.99;100.00;100600.03;5029018;28;20411;-69
2023/08/05 09:06:53;;;;;;;7.15;2.10;;;;;;;14.99;100.00;100603.50;5016855;28;20483;-69
2023/08/05 09:09:19;;;;;;;6.78;1.95;;;;;;;15.02;100.00;100599.88;5029813;28;20053;-69
2023/08/05 09:11:46;;;;;;;8.60;2.85;;;;;;;15.04;100.00;100594.50;5027707;28;20060;-69
2023/08/05 09:14:16;;;;;;;8.25;2.42;;;;;;;14.96;100.00;100590.53;5029380;28;20061;-69
2023/08/05 09:16:57;;;;;;;9.13;2.55;;;;;;;14.95;100.00;100593.25;5028336;28;20063;-68
2023/08/05 09:19:25;;;;;;;7.65;2.60;;;;;;;14.97;100.00;100594.84;5014805;28;20064;-69
2023/08/05 09:21:53;;;;;;;8.80;2.65;;;;;;;14.87;100.00;100598.13;5018448;28;20072;-68
2023/08/05 09:24:24;;;;;;;8.60;3.05;;;;;;;14.87;100.00;100600.75;5029837;28;20053;-69
2023/08/05 09:26:59;;;;;;;8.23;2.45;;;;;;;14.74;100.00;100590.91;5029160;28;20053;-68
2023/08/05 09:29:27;;;;;;;9.75;2.17;;;;;;;14.61;100.00;100580.22;5027976;28;20487;-68
2023/08/05 09:31:57;;;;;;;7.75;2.40;;;;;;;14.91;100.00;100612.81;5026583;28;20053;-69
2023/08/05 09:34:38;;;;;;;10.18;2.65;;;;;;;14.89;100.00;100617.31;5028616;28;20041;-69
2023/08/05 09:37:08;;;;;;;7.65;2.67;;;;;;;14.72;100.00;100619.16;5027741;28;20048;-69
2023/08/05 09:39:44;;;;;;;7.30;2.30;;;;;;;14.70;100.00;100621.03;5028562;28;20057;-69
2023/08/05 09:42:19;;;;;;;8.75;2.40;;;;;;;14.58;100.00;100605.91;5027694;28;20050;-69
2023/08/05 09:44:47;;;;;;;9.80;2.17;;;;;;;14.55;100.00;100611.31;5011327;28;20464;-69
2023/08/05 09:47:21;;;;;;;8.27;2.30;;;;;;;14.23;100.00;100620.06;5042136;28;20049;-69
2023/08/05 09:49:50;;;;;;;;;;;;;;;14.12;100.00;100619.78;5029445;28;20049;-69
2023/08/05 09:52:21;;;;;;;9.88;2.55;;;;;;;14.08;100.00;100618.28;5015749;28;19928;-69
2023/08/05 09:54:59;;;;;;;7.57;1.95;;;;;;;14.05;100.00;100613.16;5028715;28;20176;-69
2023/08/05 09:57:26;;;;;;;7.57;2.25;;;;;;;14.02;100.00;100621.22;5028391;28;20095;-69
2023/08/05 09:59:58;;;;;;;9.00;2.53;;;;;;;13.99;100.00;100630.16;5030050;28;20049;-69
2023/08/05 10:02:25;;;;;;;7.63;2.53;;;;;;;14.27;100.00;100636.56;5016013;28;20056;-69
2023/08/05 10:04:53;;;;;;;7.82;2.40;;;;;;;14.37;100.00;100626.34;5030668;28;20054;-69
2023/08/05 10:07:23;;;;;;;8.32;2.08;;;;;;;14.51;100.00;100625.59;5038935;28;20052;-69
2023/08/05 10:09:51;;;;;;;7.00;2.40;;;;;;;14.63;100.00;100618.84;5031939;28;20048;-69
2023/08/05 10:12:21;;;;;;;7.55;2.42;;;;;;;14.59;100.00;100621.63;5031948;28;20087;-68
2023/08/05 10:14:49;;;;;;;7.38;2.17;;;;;;;14.62;100.00;100620.59;5026117;28;20053;-69
2023/08/05 10:17:17;;;;;;;7.18;2.30;;;;;;;14.51;100.00;100621.16;5018253;28;20058;-68
2023/08/05 10:19:50;;;;;;;8.55;2.60;;;;;;;14.58;100.00;100617.28;5023195;28;20072;-69
2023/08/05 10:22:25;;;;;;;6.10;2.13;;;;;;;14.60;100.00;100620.69;5025518;28;20137;-68
2023/08/05 10:24:56;;;;;;;7.95;2.63;;;;;;;14.71;100.00;100608.69;5028529;28;20060;-69
2023/08/05 10:27:45;;;;;;;7.30;2.30;;;;;;;14.82;100.00;100624.75;5017570;28;20053;-69
2023/08/05 10:30:16;;;;;;;9.02;2.63;;;;;;;14.85;100.00;100621.09;5027607;28;20059;-69
2023/08/05 10:32:55;;;;;;;8.30;3.00;;;;;;;15.00;100.00;100623.69;5026586;28;20426;-69
2023/08/05 10:35:29;;;;;;;7.53;2.50;;;;;;;15.00;100.00;100626.31;5029356;28;20055;-69
2023/08/05 10:38:11;;;;;;;8.27;2.65;;;;;;;15.03;100.00;100625.28;5012485;28;20570;-69
2023/08/05 10:41:00;;;;;;;9.82;2.42;;;;;;;15.13;100.00;100618.53;5041324;28;20049;-67
2023/08/05 10:43:32;;;;;;;8.43;2.67;;;;;;;15.08;100.00;100622.38;5041249;28;20056;-66
2023/08/05 10:46:06;;;;;;;7.70;2.40;;;;;;;15.14;100.00;100614.13;5027428;28;20048;-69
2023/08/05 10:48:38;;;;;;;7.10;2.33;;;;;;;15.25;100.00;100621.41;5030702;28;20045;-69
2023/08/05 10:51:10;;;;;;;7.70;2.33;;;;;;;15.38;100.00;100617.94;5028642;28;20072;-69
2023/08/05 10:53:37;;;;;;;6.60;2.25;;;;;;;15.47;100.00;100611.25;5032136;28;20049;-69
2023/08/05 10:56:10;;;;;;;6.85;2.55;;;;;;;15.46;100.00;100614.84;5031037;28;20517;-69
2023/08/05 10:58:42;;;;;;;7.53;2.58;;;;;;;15.54;100.00;100612.59;5031297;28;20050;-69
2023/08/05 11:01:08;;;;;;;5.50;2.00;;;;;;;15.66;100.00;100608.38;5030078;28;20072;-67
2023/08/05 11:03:45;;;;;;;8.77;2.30;;;;;;;15.43;100.00;100593.94;5022449;28;20381;-67
2023/08/05 11:06:13;;;;;;;7.18;2.38;;;;;;;15.56;100.00;100604.59;5030334;28;20049;-68
2023/08/05 11:08:42;;;;;;;7.25;2.75;;;;;;;16.02;100.00;100606.22;5031028;28;20049;-68
2023/08/05 11:11:11;;;;;;;8.18;2.50;;;;;;;16.31;100.00;100597.31;5029717;28;20049;-68
2023/08/05 11:13:46;;;;;;;7.72;2.30;;;;;;;16.52;100.00;100600.38;5011981;28;20392;-68
2023/08/05 11:16:17;;;;;;;6.13;2.22;;;;;;;16.60;100.00;100607.78;5017841;28;20499;-68
2023/08/05 11:18:46;;;;;;;7.78;2.53;;;;;;;16.65;100.00;100605.69;5032106;28;20088;-68
2023/08/05 11:21:14;;;;;;;7.10;2.42;;;;;;;16.80;100.00;100598.59;5028476;28;20431;-68